createdAt,value
2019-06-08T00:00:44.668Z,32.60
2019-06-08T00:03:16.593Z,35.00
2019-06-08T00:05:47.057Z,32.85
2019-06-08T00:08:19.062Z,32.93
2019-06-08T00:10:49.793Z,32.63
2019-06-08T00:13:21.306Z,35.30
2019-06-08T00:15:51.686Z,34.58
2019-06-08T00:18:23.404Z,33.90
2019-06-08T00:20:54.405Z,32.40
2019-06-08T00:23:24.768Z,35.50
2019-06-08T00:25:56.354Z,30.17
2019-06-08T00:28:26.793Z,33.33
2019-06-08T00:30:57.215Z,31.90
2019-06-08T00:33:27.568Z,31.95
2019-06-08T00:35:57.972Z,32.60
2019-06-08T00:38:28.474Z,26.85
2019-06-08T00:40:59.582Z,28.60
2019-06-08T00:43:30.030Z,28.23
2019-06-08T00:46:00.702Z,31.82
2019-06-08T00:48:31.120Z,32.98
2019-06-08T00:51:01.478Z,31.50
2019-06-08T00:53:31.867Z,31.40
2019-06-08T00:56:02.278Z,29.00
2019-06-08T00:58:33.677Z,29.85
2019-06-08T01:01:04.165Z,36.25
2019-06-08T01:03:34.557Z,37.88
2019-06-08T01:06:05.124Z,31.07
2019-06-08T01:08:35.634Z,30.20
2019-06-08T01:11:06.271Z,28.62
2019-06-08T01:13:36.915Z,28.40
2019-06-08T01:16:07.294Z,31.30
2019-06-08T01:18:37.696Z,32.58
2019-06-08T01:21:08.176Z,27.02
2019-06-08T01:23:38.524Z,31.10
2019-06-08T01:26:08.933Z,31.05
2019-06-08T01:28:39.260Z,30.32
2019-06-08T01:31:09.934Z,29.57
2019-06-08T01:33:40.386Z,31.33
2019-06-08T01:36:10.770Z,32.67
2019-06-08T01:38:41.484Z,32.15
2019-06-08T01:41:11.912Z,33.42
2019-06-08T01:43:42.342Z,31.77
2019-06-08T01:46:12.830Z,31.90
2019-06-08T01:48:43.163Z,34.18
2019-06-08T01:51:13.666Z,30.17
2019-06-08T01:53:44.106Z,30.02
2019-06-08T01:56:14.593Z,29.55
2019-06-08T01:58:44.963Z,29.98
2019-06-08T02:01:15.431Z,31.97
2019-06-08T02:03:45.848Z,34.00
2019-06-08T02:06:16.261Z,32.93
2019-06-08T02:08:46.660Z,31.68
2019-06-08T02:11:17.137Z,30.02
2019-06-08T02:13:47.688Z,32.63
2019-06-08T02:16:18.480Z,27.70
2019-06-08T02:18:51.037Z,31.82
2019-06-08T02:21:20.910Z,29.75
2019-06-08T02:23:51.382Z,31.35
2019-06-08T02:26:22.275Z,30.17
2019-06-08T02:28:52.670Z,32.28
2019-06-08T02:31:23.139Z,35.30
2019-06-08T02:33:55.257Z,30.90
2019-06-08T02:36:25.694Z,28.45
2019-06-08T02:38:56.074Z,30.02
2019-06-08T02:41:26.536Z,31.35
2019-06-08T02:43:56.900Z,32.63
2019-06-08T02:46:29.063Z,34.13
2019-06-08T02:49:04.158Z,31.40
2019-06-08T02:51:34.299Z,34.60
2019-06-08T02:54:04.052Z,32.17
2019-06-08T02:56:36.729Z,32.58
2019-06-08T02:59:08.060Z,31.33
2019-06-08T03:01:40.774Z,28.87
2019-06-08T03:04:13.085Z,29.77
2019-06-08T03:06:46.393Z,30.90
2019-06-08T03:09:19.138Z,31.97
2019-06-08T03:11:50.552Z,33.48
2019-06-08T03:14:25.267Z,35.17
2019-06-08T03:16:55.938Z,30.15
2019-06-08T03:19:26.628Z,38.70
2019-06-08T03:21:57.058Z,31.48
2019-06-08T03:24:27.518Z,30.48
2019-06-08T03:26:58.025Z,30.17
2019-06-08T03:29:28.596Z,28.80
2019-06-08T03:31:59.041Z,27.85
2019-06-08T03:34:29.452Z,31.75
2019-06-08T03:36:59.847Z,32.73
2019-06-08T03:39:30.245Z,33.18
2019-06-08T03:42:00.920Z,33.00
2019-06-08T03:44:31.291Z,29.10
2019-06-08T03:47:01.712Z,30.37
2019-06-08T03:49:44.866Z,32.08
2019-06-08T03:52:04.174Z,29.98
2019-06-08T03:54:36.075Z,31.23
2019-06-08T03:57:06.622Z,33.33
2019-06-08T03:59:38.495Z,34.23
2019-06-08T04:02:09.205Z,33.40
2019-06-08T04:04:40.274Z,30.30
2019-06-08T04:07:11.885Z,33.67
2019-06-08T04:09:43.487Z,32.40
2019-06-08T04:12:15.797Z,28.80
2019-06-08T04:14:46.655Z,27.82
2019-06-08T04:17:17.180Z,37.53
2019-06-08T04:20:06.343Z,33.65
2019-06-08T04:22:19.853Z,29.37
2019-06-08T04:24:50.651Z,37.10
2019-06-08T04:27:21.339Z,34.00
2019-06-08T04:29:51.839Z,31.10
2019-06-08T04:32:22.289Z,30.52
2019-06-08T04:34:52.942Z,27.80
2019-06-08T04:37:23.299Z,30.35
2019-06-08T04:39:53.680Z,28.45
2019-06-08T04:42:24.060Z,26.12
2019-06-08T04:44:54.461Z,23.77
2019-06-08T04:47:24.836Z,25.57
2019-06-08T04:49:55.177Z,25.90
2019-06-08T04:52:25.787Z,26.42
2019-06-08T04:54:56.168Z,29.87
2019-06-08T04:57:26.565Z,29.95
2019-06-08T04:59:56.921Z,24.55
2019-06-08T05:02:27.338Z,22.98
2019-06-08T05:04:57.766Z,24.95
2019-06-08T05:07:28.434Z,25.23
2019-06-08T05:09:58.874Z,22.50
2019-06-08T05:12:29.247Z,24.98
2019-06-08T05:14:59.625Z,24.75
2019-06-08T05:17:30.070Z,19.70
2019-06-08T05:20:00.484Z,21.68
2019-06-08T05:22:31.190Z,24.23
2019-06-08T05:25:01.602Z,21.27
2019-06-08T05:27:32.050Z,21.45
2019-06-08T05:30:08.319Z,18.95
2019-06-08T05:32:36.449Z,22.02
2019-06-08T05:35:06.973Z,23.50
2019-06-08T05:37:37.338Z,19.62
2019-06-08T05:40:08.246Z,23.70
2019-06-08T05:42:40.609Z,23.10
2019-06-08T05:45:11.207Z,24.55
2019-06-08T05:47:41.837Z,24.57
2019-06-08T05:50:12.887Z,22.60
2019-06-08T05:52:44.169Z,21.68
2019-06-08T05:55:15.173Z,24.65
2019-06-08T05:57:46.536Z,23.65
2019-06-08T06:00:17.431Z,24.55
2019-06-08T06:02:48.911Z,24.45
2019-06-08T06:05:20.045Z,23.87
2019-06-08T06:07:51.221Z,26.60
2019-06-08T06:10:21.893Z,25.05
2019-06-08T06:12:52.284Z,21.60
2019-06-08T06:15:22.752Z,21.73
2019-06-08T06:17:53.103Z,23.90
2019-06-08T06:20:23.891Z,20.20
2019-06-08T06:22:54.343Z,20.08
2019-06-08T06:25:25.002Z,23.18
2019-06-08T06:27:55.433Z,24.30
2019-06-08T06:30:25.819Z,20.48
2019-06-08T06:32:56.186Z,19.10
2019-06-08T06:35:26.593Z,23.70
2019-06-08T06:37:56.971Z,20.82
2019-06-08T06:40:27.449Z,21.12
2019-06-08T06:42:57.907Z,21.12
2019-06-08T06:45:28.319Z,20.77
2019-06-08T06:47:58.725Z,23.20
2019-06-08T06:50:29.263Z,21.45
2019-06-08T06:52:59.649Z,21.27
2019-06-08T06:55:30.128Z,22.32
2019-06-08T06:58:00.659Z,21.60
2019-06-08T07:00:32.594Z,20.25
2019-06-08T07:03:03.364Z,20.08
2019-06-08T07:05:34.063Z,22.95
2019-06-08T07:08:04.473Z,22.32
2019-06-08T07:10:34.838Z,23.47
2019-06-08T07:13:05.173Z,17.87
2019-06-08T07:15:41.558Z,17.50
2019-06-08T07:18:07.689Z,22.07
2019-06-08T07:20:38.181Z,17.62
2019-06-08T07:23:08.600Z,18.45
2019-06-08T07:25:39.018Z,21.27
2019-06-08T07:28:09.539Z,15.53
2019-06-08T07:30:39.971Z,21.40
2019-06-08T07:33:10.400Z,17.60
2019-06-08T07:35:40.817Z,16.93
2019-06-08T07:38:11.239Z,18.12
2019-06-08T07:40:41.563Z,16.40
2019-06-08T07:43:11.901Z,16.40
2019-06-08T07:45:43.205Z,18.40
2019-06-08T07:48:13.601Z,20.60
2019-06-08T07:50:44.309Z,18.23
2019-06-08T07:53:15.197Z,20.30
2019-06-08T07:55:45.665Z,18.40
2019-06-08T07:58:16.130Z,14.15
2019-06-08T08:00:46.488Z,15.58
2019-06-08T08:03:16.839Z,16.70
2019-06-08T08:05:48.173Z,18.12
2019-06-08T08:08:18.839Z,18.70
2019-06-08T08:10:50.292Z,17.30
2019-06-08T08:13:20.885Z,14.23
2019-06-08T08:15:53.734Z,17.23
2019-06-08T08:18:23.512Z,16.73
2019-06-08T08:20:55.137Z,14.65
2019-06-08T08:23:27.449Z,18.05
2019-06-08T08:26:01.528Z,13.45
2019-06-08T08:28:30.278Z,16.45
2019-06-08T08:31:01.872Z,16.00
2019-06-08T08:33:32.454Z,16.20
2019-06-08T08:36:02.856Z,17.00
2019-06-08T08:38:34.652Z,16.73
2019-06-08T08:41:10.064Z,18.62
2019-06-08T08:43:37.688Z,16.20
2019-06-08T08:46:08.417Z,17.77
2019-06-08T08:48:38.816Z,15.15
2019-06-08T08:51:09.171Z,19.02
2019-06-08T08:53:39.564Z,21.23
2019-06-08T08:56:11.054Z,22.75
2019-06-08T08:58:41.514Z,15.68
2019-06-08T09:01:11.902Z,14.47
2019-06-08T09:03:42.293Z,15.48
2019-06-08T09:06:12.721Z,16.87
2019-06-08T09:08:44.143Z,16.70
2019-06-08T09:11:14.513Z,13.50
2019-06-08T09:13:44.971Z,13.43
2019-06-08T09:16:17.516Z,11.85
2019-06-08T09:18:48.022Z,13.98
2019-06-08T09:21:18.852Z,12.82
2019-06-08T09:23:49.505Z,12.82
2019-06-08T09:26:20.151Z,15.43
2019-06-08T09:28:51.679Z,14.50
2019-06-08T09:31:22.565Z,14.45
2019-06-08T09:33:58.224Z,15.90
2019-06-08T09:36:25.014Z,15.78
2019-06-08T09:39:00.633Z,13.70
2019-06-08T09:41:30.740Z,13.20
2019-06-08T09:44:02.202Z,17.05
2019-06-08T09:46:31.515Z,14.93
2019-06-08T09:49:07.580Z,14.45
2019-06-08T09:51:33.806Z,14.75
2019-06-08T09:54:06.215Z,13.60
2019-06-08T09:56:37.954Z,15.63
2019-06-08T09:59:11.063Z,15.70
2019-06-08T10:01:41.291Z,16.00
2019-06-08T10:04:11.577Z,15.13
2019-06-08T10:06:43.001Z,13.93
2019-06-08T10:09:13.785Z,14.40
2019-06-08T10:11:44.187Z,16.25
2019-06-08T10:14:14.522Z,15.98
2019-06-08T10:16:47.654Z,15.55
2019-06-08T10:19:18.713Z,15.10
2019-06-08T10:21:48.862Z,15.45
2019-06-08T10:24:19.323Z,15.35
2019-06-08T10:26:49.638Z,14.33
2019-06-08T10:29:20.181Z,14.35
2019-06-08T10:31:50.733Z,12.93
2019-06-08T10:34:20.977Z,13.95
2019-06-08T10:36:51.897Z,13.08
2019-06-08T10:39:22.282Z,13.20
2019-06-08T10:41:52.663Z,13.72
2019-06-08T10:44:23.033Z,15.68
2019-06-08T10:46:53.367Z,15.98
2019-06-08T10:49:23.718Z,17.77
2019-06-08T10:51:54.089Z,17.67
2019-06-08T10:54:24.517Z,18.30
2019-06-08T10:56:54.895Z,16.75
2019-06-08T10:59:25.268Z,19.37
2019-06-08T11:01:55.744Z,17.10
2019-06-08T11:04:28.510Z,14.13
2019-06-08T11:07:03.387Z,16.30
2019-06-08T11:09:30.398Z,17.80
2019-06-08T11:12:01.956Z,16.50
2019-06-08T11:14:32.713Z,14.20
2019-06-08T11:17:04.895Z,16.67
2019-06-08T11:19:37.675Z,17.55
2019-06-08T11:22:13.929Z,14.35
2019-06-08T11:24:40.258Z,19.30
2019-06-08T11:27:12.916Z,19.30
2019-06-08T11:29:42.625Z,22.40
2019-06-08T11:32:13.025Z,23.05
2019-06-08T11:34:43.709Z,16.20
2019-06-08T11:37:18.556Z,23.73
2019-06-08T11:39:46.102Z,18.77
2019-06-08T11:42:18.939Z,22.58
2019-06-08T11:44:51.071Z,16.27
2019-06-08T11:47:20.433Z,16.32
2019-06-08T11:49:50.761Z,17.12
2019-06-08T11:52:21.197Z,17.77
2019-06-08T11:54:51.570Z,15.65
2019-06-08T11:57:23.729Z,14.03
2019-06-08T11:59:54.161Z,15.43
2019-06-08T12:02:24.549Z,13.90
2019-06-08T12:04:57.155Z,11.65
2019-06-08T12:07:28.252Z,12.05
2019-06-08T12:09:58.907Z,12.50
2019-06-08T12:12:29.256Z,12.37
2019-06-08T12:14:59.580Z,12.30
2019-06-08T12:17:29.922Z,10.40
2019-06-08T12:20:00.284Z,8.88
2019-06-08T12:22:30.656Z,8.25
2019-06-08T12:25:01.083Z,11.00
2019-06-08T12:27:36.277Z,9.35
2019-06-08T12:30:09.005Z,9.33
2019-06-08T12:32:35.468Z,11.83
2019-06-08T12:35:09.042Z,10.78
2019-06-08T12:37:38.713Z,12.47
2019-06-08T12:40:11.700Z,11.50
2019-06-08T12:42:41.154Z,12.28
2019-06-08T12:45:13.402Z,13.83
2019-06-08T12:47:43.911Z,10.82
2019-06-08T12:50:15.462Z,13.50
2019-06-08T12:52:47.806Z,10.05
2019-06-08T12:55:24.494Z,10.43
2019-06-08T12:57:51.813Z,10.35
2019-06-08T13:00:22.903Z,11.00
2019-06-08T13:02:53.285Z,9.60
2019-06-08T13:05:23.634Z,14.35
2019-06-08T13:07:54.026Z,12.18
2019-06-08T13:10:24.469Z,14.95
2019-06-08T13:12:58.162Z,13.85
2019-06-08T13:15:30.903Z,15.20
2019-06-08T13:18:00.160Z,18.77
2019-06-08T13:20:30.466Z,17.75
2019-06-08T13:23:00.784Z,16.20
2019-06-08T13:25:40.072Z,17.57
2019-06-08T13:28:03.172Z,14.20
2019-06-08T13:30:33.926Z,13.93
2019-06-08T13:33:04.256Z,13.25
2019-06-08T13:35:34.709Z,13.98
2019-06-08T13:38:05.095Z,12.03
2019-06-08T13:40:39.923Z,12.73
2019-06-08T13:43:08.190Z,10.63
2019-06-08T13:45:39.495Z,11.93
2019-06-08T13:48:10.170Z,11.12
2019-06-08T13:50:40.577Z,12.63
2019-06-08T13:53:11.040Z,14.85
2019-06-08T13:55:54.351Z,12.65
2019-06-08T13:58:15.187Z,12.63
2019-06-08T14:00:47.668Z,14.68
2019-06-08T14:03:18.658Z,12.15
2019-06-08T14:05:49.936Z,12.33
2019-06-08T14:08:22.407Z,12.85
2019-06-08T14:10:52.344Z,15.05
2019-06-08T14:13:27.837Z,16.48
2019-06-08T14:15:55.301Z,13.40
2019-06-08T14:18:29.991Z,12.15
2019-06-08T14:20:58.838Z,12.20
2019-06-08T14:23:29.546Z,13.10
2019-06-08T14:26:01.974Z,12.45
2019-06-08T14:28:32.372Z,12.82
2019-06-08T14:31:02.772Z,14.13
2019-06-08T14:33:33.804Z,16.20
2019-06-08T14:36:04.412Z,13.95
2019-06-08T14:38:39.214Z,19.95
2019-06-08T14:41:07.990Z,18.07
2019-06-08T14:43:38.361Z,17.10
2019-06-08T14:46:10.021Z,18.05
2019-06-08T14:48:40.454Z,21.33
2019-06-08T14:51:10.814Z,16.97
2019-06-08T14:53:41.260Z,24.37
2019-06-08T14:56:11.656Z,22.62
2019-06-08T14:58:43.025Z,16.82
2019-06-08T15:01:14.815Z,19.62
2019-06-08T15:03:45.154Z,19.77
2019-06-08T15:06:17.666Z,18.05
2019-06-08T15:08:50.073Z,19.07
2019-06-08T15:11:19.670Z,17.27
2019-06-08T15:13:50.152Z,20.57
2019-06-08T15:16:21.523Z,18.70
2019-06-08T15:18:52.195Z,22.62
2019-06-08T15:21:24.143Z,22.62
2019-06-08T15:23:54.644Z,20.17
2019-06-08T15:26:32.773Z,26.30
2019-06-08T15:28:58.734Z,25.05
2019-06-08T15:31:31.039Z,24.92
2019-06-08T15:34:01.535Z,22.15
2019-06-08T15:36:32.601Z,27.25
2019-06-08T15:39:03.598Z,26.48
2019-06-08T15:41:35.150Z,24.02
2019-06-08T15:44:05.475Z,22.52
2019-06-08T15:46:37.937Z,24.60
2019-06-08T15:49:08.524Z,39.53
2019-06-08T15:51:40.757Z,17.92
2019-06-08T15:54:11.398Z,18.65
2019-06-08T15:56:51.216Z,16.12
2019-06-08T15:59:13.770Z,19.73
2019-06-08T16:01:44.131Z,19.73
2019-06-08T16:04:14.733Z,18.55
2019-06-08T16:06:45.327Z,16.97
2019-06-08T16:09:15.710Z,22.60
2019-06-08T16:11:46.064Z,18.12
2019-06-08T16:14:16.492Z,21.87
2019-06-08T16:16:46.900Z,25.10
2019-06-08T16:19:17.256Z,27.67
2019-06-08T16:21:47.776Z,33.73
2019-06-08T16:24:18.208Z,25.77
2019-06-08T16:26:53.112Z,28.30
2019-06-08T16:29:20.652Z,30.82
2019-06-08T16:31:51.084Z,28.02
2019-06-08T16:34:21.470Z,30.85
2019-06-08T16:36:51.779Z,29.23
2019-06-08T16:39:22.110Z,32.90
2019-06-08T16:41:52.550Z,33.33
2019-06-08T16:44:23.160Z,27.27
2019-06-08T16:46:53.534Z,27.95
2019-06-08T16:49:25.384Z,25.23
2019-06-08T16:51:55.762Z,24.90
2019-06-08T16:54:26.216Z,29.35
2019-06-08T16:57:09.331Z,34.25
2019-06-08T16:59:28.752Z,29.27
2019-06-08T17:01:59.459Z,29.57
2019-06-08T17:04:31.083Z,31.40
2019-06-08T17:07:03.150Z,28.95
2019-06-08T17:09:34.280Z,32.85
2019-06-08T17:12:05.092Z,26.37
2019-06-08T17:14:36.323Z,25.23
2019-06-08T17:17:07.052Z,22.65
2019-06-08T17:19:38.419Z,21.80
2019-06-08T17:22:09.081Z,24.52
2019-06-08T17:24:40.722Z,21.25
2019-06-08T17:27:25.849Z,18.80
2019-06-08T17:29:43.562Z,20.35
2019-06-08T17:32:13.936Z,14.90
2019-06-08T17:34:44.354Z,21.97
2019-06-08T17:37:14.892Z,16.73
2019-06-08T17:39:45.463Z,14.58
2019-06-08T17:42:16.081Z,16.00
2019-06-08T17:44:46.471Z,16.57
2019-06-08T17:47:16.843Z,15.08
2019-06-08T17:49:47.288Z,16.52
2019-06-08T17:52:17.672Z,14.07
2019-06-08T17:54:48.071Z,16.15
2019-06-08T17:57:18.505Z,15.93
2019-06-08T17:59:48.909Z,15.68
2019-06-08T18:02:27.425Z,17.40
2019-06-08T18:04:51.251Z,15.15
2019-06-08T18:07:21.652Z,18.25
2019-06-08T18:09:52.125Z,16.85
2019-06-08T18:12:22.528Z,13.53
2019-06-08T18:14:53.117Z,14.20
2019-06-08T18:17:23.452Z,17.23
2019-06-08T18:19:54.239Z,15.23
2019-06-08T18:22:27.019Z,14.98
2019-06-08T18:24:58.203Z,16.73
2019-06-08T18:27:28.856Z,14.18
2019-06-08T18:29:59.336Z,16.48
2019-06-08T18:32:29.694Z,13.15
2019-06-08T18:35:00.047Z,16.30
2019-06-08T18:37:30.452Z,14.23
2019-06-08T18:40:00.822Z,16.40
2019-06-08T18:42:31.453Z,13.90
2019-06-08T18:45:02.371Z,14.87
2019-06-08T18:47:32.831Z,12.45
2019-06-08T18:50:03.319Z,14.93
2019-06-08T18:52:33.721Z,14.63
2019-06-08T18:55:04.856Z,15.40
2019-06-08T18:57:35.485Z,12.98
2019-06-08T19:00:09.188Z,16.95
2019-06-08T19:02:41.977Z,13.43
2019-06-08T19:05:12.012Z,13.80
2019-06-08T19:07:43.510Z,14.47
2019-06-08T19:10:18.531Z,14.47
2019-06-08T19:12:50.662Z,13.72
2019-06-08T19:15:24.537Z,15.45
2019-06-08T19:17:57.230Z,15.00
2019-06-08T19:20:28.444Z,14.05
2019-06-08T19:22:58.887Z,12.75
2019-06-08T19:25:30.527Z,10.80
2019-06-08T19:28:01.108Z,11.35
2019-06-08T19:30:31.731Z,13.30
2019-06-08T19:33:02.120Z,12.37
2019-06-08T19:35:34.716Z,13.18
2019-06-08T19:38:04.461Z,13.55
2019-06-08T19:40:34.810Z,10.63
2019-06-08T19:43:07.386Z,12.10
2019-06-08T19:45:39.161Z,12.28
2019-06-08T19:48:09.239Z,12.65
2019-06-08T19:50:41.272Z,13.18
2019-06-08T19:53:11.715Z,12.75
2019-06-08T19:55:43.152Z,11.80
2019-06-08T19:58:13.912Z,10.30
2019-06-08T20:00:44.309Z,11.55
2019-06-08T20:03:17.705Z,10.18
2019-06-08T20:05:51.616Z,10.18
2019-06-08T20:08:19.891Z,9.00
2019-06-08T20:10:50.812Z,8.85
2019-06-08T20:13:21.451Z,8.10
2019-06-08T20:15:57.396Z,9.83
2019-06-08T20:18:23.731Z,7.70
2019-06-08T20:20:54.566Z,6.65
2019-06-08T20:23:27.465Z,7.10
2019-06-08T20:26:00.488Z,6.87
2019-06-08T20:28:29.681Z,6.75
2019-06-08T20:31:00.999Z,5.35
2019-06-08T20:33:31.396Z,5.05
2019-06-08T20:36:01.913Z,5.28
2019-06-08T20:38:38.491Z,4.55
2019-06-08T20:41:04.425Z,4.10
2019-06-08T20:43:34.748Z,5.35
2019-06-08T20:46:05.114Z,4.72
2019-06-08T20:48:37.639Z,3.62
2019-06-08T20:51:07.989Z,3.75
2019-06-08T20:53:38.890Z,4.42
2019-06-08T20:56:09.387Z,3.70
2019-06-08T20:58:39.693Z,4.75
2019-06-08T21:01:10.057Z,3.47
2019-06-08T21:03:40.449Z,4.92
2019-06-08T21:06:10.744Z,4.03
2019-06-08T21:08:41.369Z,3.72
2019-06-08T21:11:11.736Z,3.30
2019-06-08T21:13:42.188Z,4.60
2019-06-08T21:16:12.619Z,3.80
2019-06-08T21:18:42.971Z,3.95
2019-06-08T21:21:13.451Z,3.55
2019-06-08T21:23:44.850Z,3.50
2019-06-08T21:26:17.897Z,6.95
2019-06-08T21:28:52.302Z,4.85
2019-06-08T21:31:21.132Z,4.00
2019-06-08T21:33:52.621Z,3.20
2019-06-08T21:36:23.507Z,3.37
2019-06-08T21:38:56.675Z,3.08
2019-06-08T21:41:27.915Z,2.37
2019-06-08T21:44:01.893Z,2.95
2019-06-08T21:46:29.971Z,3.30
2019-06-08T21:49:00.625Z,3.10
2019-06-08T21:51:31.035Z,3.90
2019-06-08T21:54:01.329Z,3.35
2019-06-08T21:56:31.757Z,3.22
2019-06-08T21:59:02.196Z,3.80
2019-06-08T22:01:33.943Z,3.45
2019-06-08T22:04:04.806Z,4.37
2019-06-08T22:06:37.289Z,3.08
2019-06-08T22:09:09.792Z,3.22
2019-06-08T22:11:40.335Z,3.00
2019-06-08T22:14:10.689Z,4.78
2019-06-08T22:16:41.068Z,2.83
2019-06-08T22:19:11.331Z,3.72
2019-06-08T22:21:41.889Z,3.27
2019-06-08T22:24:12.179Z,3.17
2019-06-08T22:26:42.773Z,3.37
2019-06-08T22:29:13.136Z,3.30
2019-06-08T22:31:43.636Z,3.42
2019-06-08T22:34:14.035Z,3.12
2019-06-08T22:36:44.430Z,3.72
2019-06-08T22:39:17.458Z,3.55
2019-06-08T22:41:47.836Z,3.60
2019-06-08T22:44:18.390Z,2.80
2019-06-08T22:46:48.852Z,3.30
2019-06-08T22:49:19.311Z,3.77
2019-06-08T22:51:49.751Z,2.98
2019-06-08T22:54:20.057Z,3.08
2019-06-08T22:56:50.481Z,3.27
2019-06-08T22:59:20.902Z,3.00
2019-06-08T23:01:51.355Z,4.35
2019-06-08T23:04:21.835Z,3.40
2019-06-08T23:06:52.107Z,3.27
2019-06-08T23:09:22.449Z,3.17
2019-06-08T23:11:52.813Z,3.98
2019-06-08T23:14:23.127Z,4.28
2019-06-08T23:16:54.549Z,5.53
2019-06-08T23:19:26.389Z,3.98
2019-06-08T23:21:59.236Z,3.62
2019-06-08T23:24:28.868Z,3.42
2019-06-08T23:26:59.993Z,3.50
2019-06-08T23:29:30.607Z,3.40
2019-06-08T23:32:02.794Z,3.00
2019-06-08T23:34:33.091Z,3.00
2019-06-08T23:37:06.639Z,3.10
2019-06-08T23:39:37.400Z,3.92
2019-06-08T23:42:08.038Z,3.72
2019-06-08T23:44:38.704Z,2.92
2019-06-08T23:47:09.071Z,2.50
2019-06-08T23:49:39.491Z,4.83
2019-06-08T23:52:11.703Z,3.92
2019-06-08T23:54:41.915Z,3.75
2019-06-08T23:57:12.479Z,3.75
2019-06-08T23:59:42.871Z,4.30
